Ravels, Belgium
Current Conditions -  °F | °C
As of 10:25 PM on Saturday 25 Oct 2014 (Local Time) from EHGR Reporting Station
Scattered Clouds Scattered Clouds  
Wind Chill: 44°   Ceiling: Unl
Heat Index: 46°   Visibility: 6mi
Dew Point: 43°   Wind: 6mph
Humidity: 87%   Direction: 210°SSW
Pressure: 30.18"   Gusts: NA
Location:  51.37°N, 4.99°E
Report Text: EHGR 252025Z AUTO 21005KT 9999 SCT039 08/06 Q1022 BLU
Loading
Personal Weather Stations






























Interactive Weather Map
Tropical Storm Tracking
New forecast layout! Learn more

10-Day Weather Forecast

Advertisements
Track Severe Weather on mobile